sensor_id;sensor_type;location;lat;lon;timestamp;temperature;humidity
52245;DHT22;55759;51.586;-1.758;2023-04-01T00:01:38;9.70;92.80
52245;DHT22;55759;51.586;-1.758;2023-04-01T00:04:04;9.70;92.80
52245;DHT22;55759;51.586;-1.758;2023-04-01T00:06:30;9.70;92.80
52245;DHT22;55759;51.586;-1.758;2023-04-01T00:08:56;9.70;92.70
52245;DHT22;55759;51.586;-1.758;2023-04-01T00:11:22;9.70;92.70
52245;DHT22;55759;51.586;-1.758;2023-04-01T00:13:48;9.80;92.70
52245;DHT22;55759;51.586;-1.758;2023-04-01T00:16:14;9.80;92.60
52245;DHT22;55759;51.586;-1.758;2023-04-01T00:18:40;9.80;92.60
52245;DHT22;55759;51.586;-1.758;2023-04-01T00:21:06;9.70;92.70
52245;DHT22;55759;51.586;-1.758;2023-04-01T00:23:32;9.70;92.60
52245;DHT22;55759;51.586;-1.758;2023-04-01T00:26:00;9.70;92.70
52245;DHT22;55759;51.586;-1.758;2023-04-01T00:28:26;9.70;92.80
52245;DHT22;55759;51.586;-1.758;2023-04-01T00:30:52;9.70;92.90
52245;DHT22;55759;51.586;-1.758;2023-04-01T00:33:18;9.70;92.90
52245;DHT22;55759;51.586;-1.758;2023-04-01T00:35:44;9.70;93.10
52245;DHT22;55759;51.586;-1.758;2023-04-01T00:38:10;9.70;93.10
52245;DHT22;55759;51.586;-1.758;2023-04-01T00:40:44;9.70;92.90
52245;DHT22;55759;51.586;-1.758;2023-04-01T00:43:19;9.70;92.90
52245;DHT22;55759;51.586;-1.758;2023-04-01T00:45:47;9.60;92.90
52245;DHT22;55759;51.586;-1.758;2023-04-01T00:48:17;9.60;92.90
52245;DHT22;55759;51.586;-1.758;2023-04-01T00:51:02;9.60;93.10
52245;DHT22;55759;51.586;-1.758;2023-04-01T00:53:31;9.60;93.10
52245;DHT22;55759;51.586;-1.758;2023-04-01T00:56:01;9.60;93.20
52245;DHT22;55759;51.586;-1.758;2023-04-01T00:58:31;9.60;93.20
52245;DHT22;55759;51.586;-1.758;2023-04-01T01:00:59;9.60;93.20
52245;DHT22;55759;51.586;-1.758;2023-04-01T01:03:26;9.60;93.20
52245;DHT22;55759;51.586;-1.758;2023-04-01T01:06:08;9.70;93.30
52245;DHT22;55759;51.586;-1.758;2023-04-01T01:09:05;9.70;93.30
52245;DHT22;55759;51.586;-1.758;2023-04-01T01:11:42;9.70;93.30
52245;DHT22;55759;51.586;-1.758;2023-04-01T01:15:02;9.70;93.30
52245;DHT22;55759;51.586;-1.758;2023-04-01T01:27:11;9.80;93.00
52245;DHT22;55759;51.586;-1.758;2023-04-01T01:35:40;9.80;92.80
52245;DHT22;55759;51.586;-1.758;2023-04-01T01:38:11;9.80;92.90
52245;DHT22;55759;51.586;-1.758;2023-04-01T01:40:42;9.80;92.90
52245;DHT22;55759;51.586;-1.758;2023-04-01T01:43:12;9.80;92.90
52245;DHT22;55759;51.586;-1.758;2023-04-01T01:45:44;9.80;93.00
52245;DHT22;55759;51.586;-1.758;2023-04-01T01:48:12;9.90;93.00
52245;DHT22;55759;51.586;-1.758;2023-04-01T01:50:38;9.80;92.90
52245;DHT22;55759;51.586;-1.758;2023-04-01T01:53:06;9.90;92.90
52245;DHT22;55759;51.586;-1.758;2023-04-01T01:55:35;9.90;92.90
52245;DHT22;55759;51.586;-1.758;2023-04-01T02:00:38;9.90;93.00
52245;DHT22;55759;51.586;-1.758;2023-04-01T02:03:05;9.90;92.90
52245;DHT22;55759;51.586;-1.758;2023-04-01T02:05:31;9.80;92.90
52245;DHT22;55759;51.586;-1.758;2023-04-01T02:08:03;9.90;93.00
52245;DHT22;55759;51.586;-1.758;2023-04-01T02:10:35;9.90;93.00
52245;DHT22;55759;51.586;-1.758;2023-04-01T02:13:07;9.90;93.00
52245;DHT22;55759;51.586;-1.758;2023-04-01T02:15:40;9.90;93.00
52245;DHT22;55759;51.586;-1.758;2023-04-01T02:18:07;9.90;93.00
52245;DHT22;55759;51.586;-1.758;2023-04-01T02:20:33;9.90;93.10
52245;DHT22;55759;51.586;-1.758;2023-04-01T02:23:02;9.90;93.10
52245;DHT22;55759;51.586;-1.758;2023-04-01T02:25:32;10.00;93.10
52245;DHT22;55759;51.586;-1.758;2023-04-01T02:28:00;9.90;93.00
52245;DHT22;55759;51.586;-1.758;2023-04-01T02:30:27;9.90;92.90
52245;DHT22;55759;51.586;-1.758;2023-04-01T02:32:56;9.90;92.90
52245;DHT22;55759;51.586;-1.758;2023-04-01T02:35:22;9.90;93.00
52245;DHT22;55759;51.586;-1.758;2023-04-01T02:37:50;9.90;93.00
52245;DHT22;55759;51.586;-1.758;2023-04-01T02:40:17;9.90;93.10
52245;DHT22;55759;51.586;-1.758;2023-04-01T02:42:43;9.90;93.20
52245;DHT22;55759;51.586;-1.758;2023-04-01T02:45:10;9.90;93.30
52245;DHT22;55759;51.586;-1.758;2023-04-01T02:47:36;9.90;93.40
52245;DHT22;55759;51.586;-1.758;2023-04-01T02:50:02;9.90;93.50
52245;DHT22;55759;51.586;-1.758;2023-04-01T02:52:29;9.90;93.40
52245;DHT22;55759;51.586;-1.758;2023-04-01T02:54:55;9.90;93.50
52245;DHT22;55759;51.586;-1.758;2023-04-01T02:57:21;9.90;93.50
52245;DHT22;55759;51.586;-1.758;2023-04-01T02:59:47;9.90;93.50
52245;DHT22;55759;51.586;-1.758;2023-04-01T03:02:13;9.90;93.60
52245;DHT22;55759;51.586;-1.758;2023-04-01T03:04:39;10.00;93.70
52245;DHT22;55759;51.586;-1.758;2023-04-01T03:07:05;9.90;93.60
52245;DHT22;55759;51.586;-1.758;2023-04-01T03:09:31;9.90;93.50
52245;DHT22;55759;51.586;-1.758;2023-04-01T03:11:57;9.90;93.40
52245;DHT22;55759;51.586;-1.758;2023-04-01T03:14:22;9.90;93.40
52245;DHT22;55759;51.586;-1.758;2023-04-01T03:16:48;9.90;93.30
52245;DHT22;55759;51.586;-1.758;2023-04-01T03:19:14;9.90;93.40
52245;DHT22;55759;51.586;-1.758;2023-04-01T03:21:40;10.00;93.50
52245;DHT22;55759;51.586;-1.758;2023-04-01T03:24:06;10.00;93.50
52245;DHT22;55759;51.586;-1.758;2023-04-01T03:26:32;9.90;93.40
52245;DHT22;55759;51.586;-1.758;2023-04-01T03:28:57;9.90;93.30
52245;DHT22;55759;51.586;-1.758;2023-04-01T03:31:23;9.90;93.30
52245;DHT22;55759;51.586;-1.758;2023-04-01T03:33:50;9.90;93.20
52245;DHT22;55759;51.586;-1.758;2023-04-01T03:36:15;9.90;93.30
52245;DHT22;55759;51.586;-1.758;2023-04-01T03:38:42;9.90;93.10
52245;DHT22;55759;51.586;-1.758;2023-04-01T03:41:11;9.80;93.10
52245;DHT22;55759;51.586;-1.758;2023-04-01T03:43:37;9.90;93.20
52245;DHT22;55759;51.586;-1.758;2023-04-01T03:46:02;9.80;93.20
52245;DHT22;55759;51.586;-1.758;2023-04-01T03:48:28;9.80;93.20
52245;DHT22;55759;51.586;-1.758;2023-04-01T03:50:54;9.80;93.10
52245;DHT22;55759;51.586;-1.758;2023-04-01T03:53:19;9.80;93.10
52245;DHT22;55759;51.586;-1.758;2023-04-01T03:55:45;9.70;93.10
52245;DHT22;55759;51.586;-1.758;2023-04-01T03:58:12;9.80;93.20
52245;DHT22;55759;51.586;-1.758;2023-04-01T04:00:37;9.80;93.30
52245;DHT22;55759;51.586;-1.758;2023-04-01T04:03:03;9.70;93.30
52245;DHT22;55759;51.586;-1.758;2023-04-01T04:05:29;9.70;93.30
52245;DHT22;55759;51.586;-1.758;2023-04-01T04:07:55;9.70;93.30
52245;DHT22;55759;51.586;-1.758;2023-04-01T04:10:21;9.70;93.40
52245;DHT22;55759;51.586;-1.758;2023-04-01T04:12:49;9.70;93.40
52245;DHT22;55759;51.586;-1.758;2023-04-01T04:15:15;9.70;93.40
52245;DHT22;55759;51.586;-1.758;2023-04-01T04:17:41;9.70;93.40
52245;DHT22;55759;51.586;-1.758;2023-04-01T04:20:07;9.70;93.40
52245;DHT22;55759;51.586;-1.758;2023-04-01T04:22:33;9.70;93.50
52245;DHT22;55759;51.586;-1.758;2023-04-01T04:24:59;9.70;93.40
52245;DHT22;55759;51.586;-1.758;2023-04-01T04:27:25;9.70;93.50
52245;DHT22;55759;51.586;-1.758;2023-04-01T04:29:51;9.70;93.50
52245;DHT22;55759;51.586;-1.758;2023-04-01T04:32:17;9.80;93.60
52245;DHT22;55759;51.586;-1.758;2023-04-01T04:34:42;9.80;93.60
52245;DHT22;55759;51.586;-1.758;2023-04-01T04:37:08;9.70;93.50
52245;DHT22;55759;51.586;-1.758;2023-04-01T04:39:33;9.70;93.50
52245;DHT22;55759;51.586;-1.758;2023-04-01T04:41:59;9.70;93.40
52245;DHT22;55759;51.586;-1.758;2023-04-01T04:44:25;9.70;93.40
52245;DHT22;55759;51.586;-1.758;2023-04-01T04:46:51;9.70;93.40
52245;DHT22;55759;51.586;-1.758;2023-04-01T04:49:17;9.70;93.50
52245;DHT22;55759;51.586;-1.758;2023-04-01T04:51:42;9.70;93.60
52245;DHT22;55759;51.586;-1.758;2023-04-01T04:54:08;9.70;93.70
52245;DHT22;55759;51.586;-1.758;2023-04-01T04:56:34;9.70;93.80
52245;DHT22;55759;51.586;-1.758;2023-04-01T04:59:01;9.70;93.70
52245;DHT22;55759;51.586;-1.758;2023-04-01T05:01:27;9.70;93.70
52245;DHT22;55759;51.586;-1.758;2023-04-01T05:03:53;9.70;93.70
52245;DHT22;55759;51.586;-1.758;2023-04-01T05:06:20;9.70;93.70
52245;DHT22;55759;51.586;-1.758;2023-04-01T05:08:46;9.70;93.70
52245;DHT22;55759;51.586;-1.758;2023-04-01T05:11:14;9.70;93.80
52245;DHT22;55759;51.586;-1.758;2023-04-01T05:13:41;9.60;93.70
52245;DHT22;55759;51.586;-1.758;2023-04-01T05:16:12;9.60;93.70
52245;DHT22;55759;51.586;-1.758;2023-04-01T05:18:38;9.60;93.70
52245;DHT22;55759;51.586;-1.758;2023-04-01T05:21:06;9.60;93.70
52245;DHT22;55759;51.586;-1.758;2023-04-01T05:23:32;9.60;93.70
52245;DHT22;55759;51.586;-1.758;2023-04-01T05:25:58;9.60;93.80
52245;DHT22;55759;51.586;-1.758;2023-04-01T05:28:24;9.60;93.90
52245;DHT22;55759;51.586;-1.758;2023-04-01T05:30:50;9.60;93.90
52245;DHT22;55759;51.586;-1.758;2023-04-01T05:33:16;9.60;94.00
52245;DHT22;55759;51.586;-1.758;2023-04-01T05:35:42;9.60;94.00
52245;DHT22;55759;51.586;-1.758;2023-04-01T05:38:07;9.60;93.90
52245;DHT22;55759;51.586;-1.758;2023-04-01T05:40:33;9.60;94.00
52245;DHT22;55759;51.586;-1.758;2023-04-01T05:42:59;9.60;94.10
52245;DHT22;55759;51.586;-1.758;2023-04-01T05:45:26;9.60;94.10
52245;DHT22;55759;51.586;-1.758;2023-04-01T05:47:52;9.70;94.10
52245;DHT22;55759;51.586;-1.758;2023-04-01T05:50:18;9.70;94.10
52245;DHT22;55759;51.586;-1.758;2023-04-01T05:52:44;9.70;94.10
52245;DHT22;55759;51.586;-1.758;2023-04-01T05:55:10;9.70;94.20
52245;DHT22;55759;51.586;-1.758;2023-04-01T05:57:36;9.70;94.10
52245;DHT22;55759;51.586;-1.758;2023-04-01T06:00:03;9.70;94.10
52245;DHT22;55759;51.586;-1.758;2023-04-01T06:02:29;9.70;94.10
52245;DHT22;55759;51.586;-1.758;2023-04-01T06:05:02;9.70;94.10
52245;DHT22;55759;51.586;-1.758;2023-04-01T06:07:29;9.70;94.10
52245;DHT22;55759;51.586;-1.758;2023-04-01T06:09:54;9.70;94.00
52245;DHT22;55759;51.586;-1.758;2023-04-01T06:13:00;9.70;94.00
52245;DHT22;55759;51.586;-1.758;2023-04-01T06:15:36;9.70;94.00
52245;DHT22;55759;51.586;-1.758;2023-04-01T06:26:53;9.70;94.00
52245;DHT22;55759;51.586;-1.758;2023-04-01T06:29:44;9.80;94.00
52245;DHT22;55759;51.586;-1.758;2023-04-01T06:46:02;9.90;93.90
52245;DHT22;55759;51.586;-1.758;2023-04-01T06:51:30;9.80;93.80
52245;DHT22;55759;51.586;-1.758;2023-04-01T06:54:10;9.80;93.80
52245;DHT22;55759;51.586;-1.758;2023-04-01T06:56:40;9.70;93.60
52245;DHT22;55759;51.586;-1.758;2023-04-01T06:59:13;9.60;93.20
52245;DHT22;55759;51.586;-1.758;2023-04-01T07:04:43;9.60;93.30
52245;DHT22;55759;51.586;-1.758;2023-04-01T07:10:23;9.50;93.20
52245;DHT22;55759;51.586;-1.758;2023-04-01T07:12:55;9.50;93.20
52245;DHT22;55759;51.586;-1.758;2023-04-01T07:15:36;9.50;93.10
52245;DHT22;55759;51.586;-1.758;2023-04-01T07:18:15;9.60;93.20
52245;DHT22;55759;51.586;-1.758;2023-04-01T07:20:42;9.60;93.40
52245;DHT22;55759;51.586;-1.758;2023-04-01T07:23:31;9.70;93.40
52245;DHT22;55759;51.586;-1.758;2023-04-01T07:26:11;9.80;93.20
52245;DHT22;55759;51.586;-1.758;2023-04-01T07:28:40;9.80;93.10
52245;DHT22;55759;51.586;-1.758;2023-04-01T07:36:43;9.90;92.50
52245;DHT22;55759;51.586;-1.758;2023-04-01T07:45:06;9.50;91.90
52245;DHT22;55759;51.586;-1.758;2023-04-01T07:56:05;9.50;91.90
52245;DHT22;55759;51.586;-1.758;2023-04-01T07:59:11;9.50;92.20
52245;DHT22;55759;51.586;-1.758;2023-04-01T08:07:23;9.40;91.40
52245;DHT22;55759;51.586;-1.758;2023-04-01T08:15:26;9.60;91.40
52245;DHT22;55759;51.586;-1.758;2023-04-01T08:21:12;9.80;91.30
52245;DHT22;55759;51.586;-1.758;2023-04-01T08:23:44;9.90;91.10
52245;DHT22;55759;51.586;-1.758;2023-04-01T08:28:59;10.20;90.30
52245;DHT22;55759;51.586;-1.758;2023-04-01T08:31:35;10.20;89.60
52245;DHT22;55759;51.586;-1.758;2023-04-01T08:34:04;10.40;89.50
52245;DHT22;55759;51.586;-1.758;2023-04-01T08:36:41;10.40;89.40
52245;DHT22;55759;51.586;-1.758;2023-04-01T08:39:11;10.60;89.70
52245;DHT22;55759;51.586;-1.758;2023-04-01T08:47:20;10.80;89.60
52245;DHT22;55759;51.586;-1.758;2023-04-01T09:14:07;10.40;89.10
52245;DHT22;55759;51.586;-1.758;2023-04-01T09:19:57;10.40;88.00
52245;DHT22;55759;51.586;-1.758;2023-04-01T09:39:31;11.00;88.60
52245;DHT22;55759;51.586;-1.758;2023-04-01T09:44:35;10.90;87.30
52245;DHT22;55759;51.586;-1.758;2023-04-01T09:47:37;10.80;86.50
52245;DHT22;55759;51.586;-1.758;2023-04-01T09:53:11;10.80;86.70
52245;DHT22;55759;51.586;-1.758;2023-04-01T10:07:20;12.30;83.80
52245;DHT22;55759;51.586;-1.758;2023-04-01T10:23:44;13.10;80.60
52245;DHT22;55759;51.586;-1.758;2023-04-01T10:34:59;13.10;77.30
52245;DHT22;55759;51.586;-1.758;2023-04-01T10:40:38;12.70;78.60
52245;DHT22;55759;51.586;-1.758;2023-04-01T10:48:40;12.30;79.70
52245;DHT22;55759;51.586;-1.758;2023-04-01T11:05:08;12.10;79.10
52245;DHT22;55759;51.586;-1.758;2023-04-01T11:07:54;12.40;78.50
52245;DHT22;55759;51.586;-1.758;2023-04-01T11:19:19;13.40;76.30
52245;DHT22;55759;51.586;-1.758;2023-04-01T11:30:49;13.00;76.20
52245;DHT22;55759;51.586;-1.758;2023-04-01T11:32:53;12.90;76.90
52245;DHT22;55759;51.586;-1.758;2023-04-01T11:35:29;13.10;77.40
52245;DHT22;55759;51.586;-1.758;2023-04-01T11:40:45;12.90;76.30
52245;DHT22;55759;51.586;-1.758;2023-04-01T11:43:22;12.70;77.00
52245;DHT22;55759;51.586;-1.758;2023-04-01T11:46:05;12.60;77.30
52245;DHT22;55759;51.586;-1.758;2023-04-01T11:48:42;12.40;77.70
52245;DHT22;55759;51.586;-1.758;2023-04-01T12:06:21;11.70;79.60
52245;DHT22;55759;51.586;-1.758;2023-04-01T12:14:24;12.40;78.60
52245;DHT22;55759;51.586;-1.758;2023-04-01T12:17:04;12.50;77.70
52245;DHT22;55759;51.586;-1.758;2023-04-01T12:19:35;12.50;76.60
52245;DHT22;55759;51.586;-1.758;2023-04-01T12:27:38;12.30;78.30
52245;DHT22;55759;51.586;-1.758;2023-04-01T12:44:35;12.40;75.70
52245;DHT22;55759;51.586;-1.758;2023-04-01T12:56:00;12.80;73.60
52245;DHT22;55759;51.586;-1.758;2023-04-01T13:20:47;12.90;74.30
52245;DHT22;55759;51.586;-1.758;2023-04-01T13:23:32;13.00;74.50
52245;DHT22;55759;51.586;-1.758;2023-04-01T13:28:41;13.10;72.20
52245;DHT22;55759;51.586;-1.758;2023-04-01T13:31:19;13.20;71.60
52245;DHT22;55759;51.586;-1.758;2023-04-01T13:36:59;13.60;70.20
52245;DHT22;55759;51.586;-1.758;2023-04-01T13:44:56;14.80;66.50
52245;DHT22;55759;51.586;-1.758;2023-04-01T13:53:01;14.30;68.40
52245;DHT22;55759;51.586;-1.758;2023-04-01T14:01:05;15.10;63.90
52245;DHT22;55759;51.586;-1.758;2023-04-01T14:07:29;15.20;64.70
52245;DHT22;55759;51.586;-1.758;2023-04-01T14:12:04;14.60;65.10
52245;DHT22;55759;51.586;-1.758;2023-04-01T14:14:54;14.40;65.10
52245;DHT22;55759;51.586;-1.758;2023-04-01T14:33:50;14.20;65.40
52245;DHT22;55759;51.586;-1.758;2023-04-01T14:39:28;14.50;64.90
52245;DHT22;55759;51.586;-1.758;2023-04-01T14:44:50;14.40;64.80
52245;DHT22;55759;51.586;-1.758;2023-04-01T14:52:40;19.20;55.00
52245;DHT22;55759;51.586;-1.758;2023-04-01T14:55:34;21.20;53.30
52245;DHT22;55759;51.586;-1.758;2023-04-01T14:58:18;21.50;45.70
52245;DHT22;55759;51.586;-1.758;2023-04-01T15:03:33;19.90;47.70
52245;DHT22;55759;51.586;-1.758;2023-04-01T15:09:10;18.70;52.50
52245;DHT22;55759;51.586;-1.758;2023-04-01T15:14:39;19.00;54.10
52245;DHT22;55759;51.586;-1.758;2023-04-01T15:34:19;16.80;54.10
52245;DHT22;55759;51.586;-1.758;2023-04-01T15:39:57;20.20;48.70
52245;DHT22;55759;51.586;-1.758;2023-04-01T15:48:14;18.80;47.40
52245;DHT22;55759;51.586;-1.758;2023-04-01T15:53:54;16.20;54.30
52245;DHT22;55759;51.586;-1.758;2023-04-01T16:00:09;14.70;60.00
52245;DHT22;55759;51.586;-1.758;2023-04-01T16:02:48;14.10;61.90
52245;DHT22;55759;51.586;-1.758;2023-04-01T16:08:23;13.60;64.70
52245;DHT22;55759;51.586;-1.758;2023-04-01T16:24:41;12.50;64.90
52245;DHT22;55759;51.586;-1.758;2023-04-01T16:27:29;12.30;66.50
52245;DHT22;55759;51.586;-1.758;2023-04-01T16:30:26;12.30;67.40
52245;DHT22;55759;51.586;-1.758;2023-04-01T16:33:14;12.30;65.80
52245;DHT22;55759;51.586;-1.758;2023-04-01T16:35:48;12.30;65.30
52245;DHT22;55759;51.586;-1.758;2023-04-01T16:46:43;12.00;66.20
52245;DHT22;55759;51.586;-1.758;2023-04-01T16:49:17;11.90;66.40
52245;DHT22;55759;51.586;-1.758;2023-04-01T16:54:57;11.70;67.40
52245;DHT22;55759;51.586;-1.758;2023-04-01T16:59:55;11.60;68.70
52245;DHT22;55759;51.586;-1.758;2023-04-01T17:02:37;11.60;69.10
52245;DHT22;55759;51.586;-1.758;2023-04-01T17:05:11;11.60;70.30
52245;DHT22;55759;51.586;-1.758;2023-04-01T17:13:34;11.50;72.10
52245;DHT22;55759;51.586;-1.758;2023-04-01T17:21:25;11.30;73.40
52245;DHT22;55759;51.586;-1.758;2023-04-01T17:24:38;11.20;72.80
52245;DHT22;55759;51.586;-1.758;2023-04-01T17:35:09;10.90;72.20
52245;DHT22;55759;51.586;-1.758;2023-04-01T17:45:57;10.60;71.50
52245;DHT22;55759;51.586;-1.758;2023-04-01T17:59:38;10.40;73.30
52245;DHT22;55759;51.586;-1.758;2023-04-01T18:23:55;10.10;73.70
52245;DHT22;55759;51.586;-1.758;2023-04-01T18:26:29;10.10;73.40
52245;DHT22;55759;51.586;-1.758;2023-04-01T18:29:02;10.10;73.90
52245;DHT22;55759;51.586;-1.758;2023-04-01T18:31:40;10.00;74.60
52245;DHT22;55759;51.586;-1.758;2023-04-01T18:34:20;10.00;74.80
52245;DHT22;55759;51.586;-1.758;2023-04-01T18:37:11;9.90;74.00
52245;DHT22;55759;51.586;-1.758;2023-04-01T18:39:40;9.90;74.90
52245;DHT22;55759;51.586;-1.758;2023-04-01T18:42:38;9.90;74.00
52245;DHT22;55759;51.586;-1.758;2023-04-01T18:45:21;9.80;74.40
52245;DHT22;55759;51.586;-1.758;2023-04-01T18:47:55;9.80;75.70
52245;DHT22;55759;51.586;-1.758;2023-04-01T18:50:28;9.80;76.50
52245;DHT22;55759;51.586;-1.758;2023-04-01T18:55:47;9.80;75.60
52245;DHT22;55759;51.586;-1.758;2023-04-01T18:58:45;9.80;77.40
52245;DHT22;55759;51.586;-1.758;2023-04-01T19:01:59;9.80;76.20
52245;DHT22;55759;51.586;-1.758;2023-04-01T19:04:47;9.80;76.70
52245;DHT22;55759;51.586;-1.758;2023-04-01T19:10:17;9.70;76.40
52245;DHT22;55759;51.586;-1.758;2023-04-01T19:15:31;9.70;75.80
52245;DHT22;55759;51.586;-1.758;2023-04-01T19:26:42;9.60;75.00
52245;DHT22;55759;51.586;-1.758;2023-04-01T19:29:46;9.60;75.60
52245;DHT22;55759;51.586;-1.758;2023-04-01T19:38:19;9.50;74.80
52245;DHT22;55759;51.586;-1.758;2023-04-01T19:46:30;9.50;75.10
52245;DHT22;55759;51.586;-1.758;2023-04-01T19:50:09;9.40;74.60
52245;DHT22;55759;51.586;-1.758;2023-04-01T19:52:09;9.40;75.00
52245;DHT22;55759;51.586;-1.758;2023-04-01T19:58:12;9.40;74.50
52245;DHT22;55759;51.586;-1.758;2023-04-01T20:00:31;9.30;75.60
52245;DHT22;55759;51.586;-1.758;2023-04-01T20:05:55;9.20;75.60
52245;DHT22;55759;51.586;-1.758;2023-04-01T20:08:36;9.10;75.00
52245;DHT22;55759;51.586;-1.758;2023-04-01T20:11:26;9.00;74.30
52245;DHT22;55759;51.586;-1.758;2023-04-01T20:14:20;8.90;75.00
52245;DHT22;55759;51.586;-1.758;2023-04-01T20:19:54;8.70;76.00
52245;DHT22;55759;51.586;-1.758;2023-04-01T20:27:44;8.80;77.30
52245;DHT22;55759;51.586;-1.758;2023-04-01T20:30:51;8.90;76.20
52245;DHT22;55759;51.586;-1.758;2023-04-01T20:52:41;9.10;75.70
52245;DHT22;55759;51.586;-1.758;2023-04-01T20:56:09;9.00;75.60
52245;DHT22;55759;51.586;-1.758;2023-04-01T20:58:31;9.00;75.50
52245;DHT22;55759;51.586;-1.758;2023-04-01T21:03:38;9.00;75.70
52245;DHT22;55759;51.586;-1.758;2023-04-01T21:06:39;9.10;75.70
52245;DHT22;55759;51.586;-1.758;2023-04-01T21:17:00;9.10;75.70
52245;DHT22;55759;51.586;-1.758;2023-04-01T21:28:30;9.10;75.50
52245;DHT22;55759;51.586;-1.758;2023-04-01T21:42:19;9.10;76.00
52245;DHT22;55759;51.586;-1.758;2023-04-01T21:44:56;9.10;75.70
52245;DHT22;55759;51.586;-1.758;2023-04-01T22:04:37;8.90;77.70
52245;DHT22;55759;51.586;-1.758;2023-04-01T22:07:17;8.80;78.30
52245;DHT22;55759;51.586;-1.758;2023-04-01T22:15:40;8.60;79.60
52245;DHT22;55759;51.586;-1.758;2023-04-01T22:18:29;8.60;80.10
52245;DHT22;55759;51.586;-1.758;2023-04-01T22:24:05;8.70;79.80
52245;DHT22;55759;51.586;-1.758;2023-04-01T22:27:01;8.70;80.10
52245;DHT22;55759;51.586;-1.758;2023-04-01T22:29:43;8.70;79.80
52245;DHT22;55759;51.586;-1.758;2023-04-01T22:32:12;8.70;79.90
52245;DHT22;55759;51.586;-1.758;2023-04-01T22:39:57;8.80;80.80
52245;DHT22;55759;51.586;-1.758;2023-04-01T22:56:03;8.80;80.90
52245;DHT22;55759;51.586;-1.758;2023-04-01T22:58:38;8.70;81.00
52245;DHT22;55759;51.586;-1.758;2023-04-01T23:01:10;8.80;81.30
52245;DHT22;55759;51.586;-1.758;2023-04-01T23:03:46;8.80;81.40
52245;DHT22;55759;51.586;-1.758;2023-04-01T23:06:21;8.80;81.20
52245;DHT22;55759;51.586;-1.758;2023-04-01T23:08:55;8.80;81.60
52245;DHT22;55759;51.586;-1.758;2023-04-01T23:22:30;8.70;81.90
52245;DHT22;55759;51.586;-1.758;2023-04-01T23:38:17;8.80;81.90
52245;DHT22;55759;51.586;-1.758;2023-04-01T23:40:43;8.80;82.20
52245;DHT22;55759;51.586;-1.758;2023-04-01T23:43:31;8.80;81.60
52245;DHT22;55759;51.586;-1.758;2023-04-01T23:45:59;8.80;81.70
52245;DHT22;55759;51.586;-1.758;2023-04-01T23:48:39;8.80;81.70
52245;DHT22;55759;51.586;-1.758;2023-04-01T23:53:46;8.80;81.20
52245;DHT22;55759;51.586;-1.758;2023-04-01T23:56:16;8.80;81.20
52245;DHT22;55759;51.586;-1.758;2023-04-01T23:58:47;8.80;81.40
